createdAt,value
2017-11-01T00:00:59.147Z,8.09
2017-11-01T00:03:33.750Z,8.13
2017-11-01T00:06:08.178Z,7.99
2017-11-01T00:08:42.788Z,7.82
2017-11-01T00:11:17.377Z,7.73
2017-11-01T00:13:51.759Z,7.98
2017-11-01T00:16:28.175Z,7.92
2017-11-01T00:19:02.743Z,7.90
2017-11-01T00:21:37.199Z,8.13
2017-11-01T00:24:11.791Z,8.07
2017-11-01T00:26:46.347Z,7.79
2017-11-01T00:29:20.927Z,8.04
2017-11-01T00:31:55.333Z,7.95
2017-11-01T00:34:32.347Z,7.88
2017-11-01T00:37:06.882Z,7.96
2017-11-01T00:39:41.416Z,8.11
2017-11-01T00:42:15.947Z,7.79
2017-11-01T00:44:50.488Z,7.64
2017-11-01T00:47:25.011Z,7.75
2017-11-01T00:49:59.554Z,8.05
2017-11-01T00:52:33.998Z,7.97
2017-11-01T00:55:15.471Z,7.63
2017-11-01T00:57:49.863Z,7.52
2017-11-01T01:00:24.501Z,7.35
2017-11-01T01:02:59.240Z,7.36
2017-11-01T01:05:33.719Z,7.26
2017-11-01T01:08:08.205Z,7.28
2017-11-01T01:10:42.666Z,7.49
2017-11-01T01:13:17.091Z,7.86
2017-11-01T01:15:51.541Z,7.98
2017-11-01T01:18:25.979Z,7.90
2017-11-01T01:21:00.530Z,7.67
2017-11-01T01:23:35.160Z,7.54
2017-11-01T01:26:09.719Z,7.71
2017-11-01T01:28:44.292Z,7.72
2017-11-01T01:31:18.760Z,7.78
2017-11-01T01:33:53.351Z,7.63
2017-11-01T01:36:28.002Z,7.39
2017-11-01T01:39:02.612Z,7.75
2017-11-01T01:41:37.027Z,7.54
2017-11-01T01:44:11.492Z,7.57
2017-11-01T01:46:45.970Z,7.34
2017-11-01T01:49:20.429Z,7.58
2017-11-01T01:51:54.952Z,7.47
2017-11-01T01:54:29.573Z,7.11
2017-11-01T01:57:04.072Z,7.11
2017-11-01T01:59:38.889Z,7.01
2017-11-01T02:02:12.984Z,7.14
2017-11-01T02:04:48.393Z,7.16
2017-11-01T02:07:22.979Z,7.15
2017-11-01T02:09:57.571Z,7.27
2017-11-01T02:12:32.039Z,7.49
2017-11-01T02:15:15.262Z,7.49
2017-11-01T02:17:49.884Z,7.39
2017-11-01T02:20:23.971Z,7.38
2017-11-01T02:22:58.587Z,7.38
2017-11-01T02:25:32.626Z,7.35
2017-11-01T02:28:06.763Z,7.26
2017-11-01T02:30:40.570Z,7.24
2017-11-01T02:33:15.147Z,7.24
2017-11-01T02:35:49.615Z,7.18
2017-11-01T02:38:24.695Z,7.18
2017-11-01T02:40:58.823Z,7.22
2017-11-01T02:43:32.990Z,7.16
2017-11-01T02:46:07.447Z,7.06
2017-11-01T02:48:42.070Z,6.97
2017-11-01T02:51:16.187Z,6.92
2017-11-01T02:53:50.475Z,6.85
2017-11-01T02:56:24.609Z,6.61
2017-11-01T02:58:58.770Z,6.53
2017-11-01T03:01:32.914Z,6.62
2017-11-01T03:04:07.127Z,6.63
2017-11-01T03:06:41.606Z,6.82
2017-11-01T03:09:16.179Z,6.67
2017-11-01T03:11:50.706Z,6.58
2017-11-01T03:14:24.839Z,6.88
2017-11-01T03:16:58.920Z,7.08
2017-11-01T03:19:33.035Z,7.00
2017-11-01T03:22:07.557Z,6.78
2017-11-01T03:24:41.973Z,6.75
2017-11-01T03:27:16.095Z,6.42
2017-11-01T03:29:50.413Z,6.66
2017-11-01T03:32:24.507Z,6.60
2017-11-01T03:34:58.823Z,6.71
2017-11-01T03:37:33.238Z,6.67
2017-11-01T03:40:14.772Z,6.61
2017-11-01T03:42:49.023Z,6.63
2017-11-01T03:45:22.858Z,6.65
2017-11-01T03:47:57.145Z,6.49
2017-11-01T03:50:31.215Z,6.42
2017-11-01T03:53:05.630Z,6.45
2017-11-01T03:55:39.771Z,6.13
2017-11-01T03:58:13.823Z,6.28
2017-11-01T04:00:47.894Z,6.05
2017-11-01T04:03:22.091Z,6.13
2017-11-01T04:05:56.588Z,6.11
2017-11-01T04:08:30.814Z,5.96
2017-11-01T04:11:04.854Z,6.20
2017-11-01T04:13:38.847Z,6.28
2017-11-01T04:16:13.684Z,6.29
2017-11-01T04:18:53.699Z,6.37
2017-11-01T04:21:28.239Z,6.19
2017-11-01T04:24:02.839Z,5.87
2017-11-01T04:26:37.325Z,5.78
2017-11-01T04:29:11.319Z,5.87
2017-11-01T04:31:45.358Z,5.90
2017-11-01T04:34:19.602Z,5.87
2017-11-01T04:36:53.919Z,5.79
2017-11-01T04:39:28.436Z,5.78
2017-11-01T04:42:02.606Z,5.77
2017-11-01T04:44:36.885Z,5.79
2017-11-01T04:47:11.807Z,5.80
2017-11-01T04:49:46.310Z,5.74
2017-11-01T04:52:20.438Z,5.79
2017-11-01T04:54:54.710Z,5.68
2017-11-01T04:57:29.104Z,5.61
2017-11-01T05:02:44.043Z,5.57
2017-11-01T05:05:18.130Z,5.46
2017-11-01T05:07:52.674Z,5.39
2017-11-01T05:10:27.131Z,5.18
2017-11-01T05:13:03.942Z,5.66
2017-11-01T05:15:38.151Z,5.44
2017-11-01T05:18:12.279Z,5.45
2017-11-01T05:20:46.069Z,5.59
2017-11-01T05:23:20.581Z,5.58
2017-11-01T05:25:55.854Z,5.27
2017-11-01T05:28:30.454Z,4.99
2017-11-01T05:31:04.626Z,4.79
2017-11-01T05:33:39.211Z,4.67
2017-11-01T05:36:13.314Z,4.68
2017-11-01T05:38:47.320Z,4.55
2017-11-01T05:41:21.403Z,4.46
2017-11-01T05:43:55.990Z,4.57
2017-11-01T05:46:30.134Z,4.91
2017-11-01T05:49:04.303Z,5.05
2017-11-01T05:51:38.466Z,4.94
2017-11-01T05:54:13.003Z,5.10
2017-11-01T05:56:47.119Z,5.09
2017-11-01T05:59:21.288Z,5.23
2017-11-01T06:01:55.418Z,5.03
2017-11-01T06:04:29.742Z,4.98
2017-11-01T06:07:03.878Z,4.90
2017-11-01T06:09:38.475Z,4.93
2017-11-01T06:12:12.609Z,4.98
2017-11-01T06:14:47.143Z,5.15
2017-11-01T06:17:21.553Z,5.17
2017-11-01T06:19:55.667Z,5.25
2017-11-01T06:22:30.064Z,5.28
2017-11-01T06:25:04.439Z,5.33
2017-11-01T06:27:38.706Z,5.39
2017-11-01T06:30:15.787Z,5.51
2017-11-01T06:32:49.997Z,5.59
2017-11-01T06:35:24.159Z,5.63
2017-11-01T06:37:58.679Z,5.70
2017-11-01T06:40:33.104Z,5.79
2017-11-01T06:43:07.170Z,5.86
2017-11-01T06:45:41.330Z,5.91
2017-11-01T06:48:15.474Z,6.01
2017-11-01T06:50:49.634Z,6.23
2017-11-01T06:53:23.867Z,6.08
2017-11-01T06:55:57.899Z,6.31
2017-11-01T06:58:32.147Z,6.20
2017-11-01T07:01:06.331Z,6.49
2017-11-01T07:03:41.147Z,6.42
2017-11-01T07:06:15.811Z,6.43
2017-11-01T07:08:50.236Z,6.59
2017-11-01T07:11:24.825Z,6.81
2017-11-01T07:13:59.062Z,6.78
2017-11-01T07:16:33.638Z,7.08
2017-11-01T07:19:08.251Z,7.38
2017-11-01T07:21:42.505Z,7.52
2017-11-01T07:24:16.786Z,7.69
2017-11-01T07:26:51.214Z,7.73
2017-11-01T07:29:25.803Z,7.59
2017-11-01T07:32:00.260Z,7.51
2017-11-01T07:34:34.982Z,7.49
2017-11-01T07:37:09.440Z,7.51
2017-11-01T07:39:44.000Z,7.62
2017-11-01T07:42:18.531Z,7.70
2017-11-01T07:44:52.930Z,8.02
2017-11-01T07:47:27.492Z,8.07
2017-11-01T07:50:02.243Z,8.06
2017-11-01T07:52:38.942Z,8.10
2017-11-01T07:55:15.636Z,8.36
2017-11-01T07:57:50.104Z,8.28
2017-11-01T08:00:24.493Z,8.42
2017-11-01T08:02:58.998Z,8.53
2017-11-01T08:05:33.401Z,8.76
2017-11-01T08:08:07.815Z,8.95
2017-11-01T08:10:42.216Z,8.75
2017-11-01T08:13:16.807Z,8.83
2017-11-01T08:15:51.317Z,8.79
2017-11-01T08:18:26.030Z,8.86
2017-11-01T08:21:00.869Z,8.92
2017-11-01T08:23:35.402Z,8.99
2017-11-01T08:26:09.862Z,9.03
2017-11-01T08:28:43.699Z,9.17
2017-11-01T08:31:18.191Z,9.19
2017-11-01T08:33:52.839Z,9.14
2017-11-01T08:36:27.436Z,9.15
2017-11-01T08:39:01.882Z,9.30
2017-11-01T08:41:36.394Z,9.52
2017-11-01T08:44:10.986Z,9.64
2017-11-01T08:46:45.823Z,9.71
2017-11-01T08:49:20.304Z,9.73
2017-11-01T08:51:54.874Z,10.04
2017-11-01T08:54:29.485Z,9.97
2017-11-01T08:57:04.065Z,10.04
2017-11-01T08:59:38.600Z,10.11
2017-11-01T09:02:13.107Z,10.21
2017-11-01T09:04:47.591Z,10.18
2017-11-01T09:07:22.110Z,10.18
2017-11-01T09:09:56.687Z,10.25
2017-11-01T09:12:31.070Z,10.18
2017-11-01T09:15:06.435Z,9.98
2017-11-01T09:17:44.849Z,10.30
2017-11-01T09:20:19.219Z,10.24
2017-11-01T09:22:53.697Z,10.23
2017-11-01T09:25:28.226Z,10.64
2017-11-01T09:28:02.870Z,11.16
2017-11-01T09:30:37.403Z,11.49
2017-11-01T09:33:11.998Z,11.57
2017-11-01T09:35:46.482Z,11.28
2017-11-01T09:38:20.996Z,11.61
2017-11-01T09:40:55.491Z,11.64
2017-11-01T09:43:30.072Z,11.56
2017-11-01T09:46:04.474Z,11.52
2017-11-01T09:48:39.315Z,11.58
2017-11-01T09:51:13.861Z,11.61
2017-11-01T09:53:48.536Z,12.04
2017-11-01T09:56:23.164Z,12.43
2017-11-01T09:58:57.739Z,13.50
2017-11-01T10:01:32.605Z,14.22
2017-11-01T10:04:07.159Z,13.93
2017-11-01T10:06:41.649Z,13.79
2017-11-01T10:09:16.215Z,13.37
2017-11-01T10:11:50.774Z,13.37
2017-11-01T10:14:25.411Z,13.06
2017-11-01T10:16:59.926Z,12.04
2017-11-01T10:19:34.358Z,11.63
2017-11-01T10:22:08.837Z,11.67
2017-11-01T10:24:43.276Z,11.55
2017-11-01T10:27:17.780Z,11.26
2017-11-01T10:29:52.307Z,11.18
2017-11-01T10:32:26.781Z,11.20
2017-11-01T10:35:01.263Z,11.18
2017-11-01T10:37:36.736Z,11.25
2017-11-01T10:40:11.254Z,11.17
2017-11-01T10:42:45.899Z,11.38
2017-11-01T10:45:20.490Z,11.32
2017-11-01T10:47:55.047Z,11.34
2017-11-01T10:50:29.607Z,11.45
2017-11-01T10:53:04.011Z,11.50
2017-11-01T10:55:38.417Z,11.61
2017-11-01T10:58:12.978Z,11.63
2017-11-01T11:00:47.036Z,11.72
2017-11-01T11:03:21.642Z,11.83
2017-11-01T11:05:56.299Z,11.96
2017-11-01T11:08:30.808Z,11.94
2017-11-01T11:11:05.197Z,12.06
2017-11-01T11:13:39.814Z,12.10
2017-11-01T11:16:14.294Z,12.01
2017-11-01T11:18:48.726Z,12.07
2017-11-01T11:21:23.122Z,12.08
2017-11-01T11:23:57.639Z,12.16
2017-11-01T11:26:32.343Z,12.02
2017-11-01T11:29:06.788Z,12.20
2017-11-01T11:31:41.191Z,12.22
2017-11-01T11:34:15.894Z,12.18
2017-11-01T11:36:50.338Z,12.32
2017-11-01T11:39:24.762Z,12.00
2017-11-01T11:41:59.176Z,12.04
2017-11-01T11:44:33.795Z,12.10
2017-11-01T11:47:08.319Z,11.99
2017-11-01T11:49:42.892Z,12.11
2017-11-01T11:52:17.438Z,12.03
2017-11-01T11:54:51.956Z,12.03
2017-11-01T11:57:26.266Z,12.08
2017-11-01T12:00:00.651Z,12.06
2017-11-01T12:02:35.206Z,11.80
2017-11-01T12:05:13.854Z,11.83
2017-11-01T12:07:48.295Z,11.66
2017-11-01T12:10:26.625Z,11.62
2017-11-01T12:13:01.103Z,11.67
2017-11-01T12:15:35.555Z,11.61
2017-11-01T12:18:10.165Z,11.40
2017-11-01T12:20:44.767Z,11.43
2017-11-01T12:23:19.870Z,10.79
2017-11-01T12:25:54.270Z,11.27
2017-11-01T12:28:28.919Z,11.26
2017-11-01T12:31:03.455Z,11.35
2017-11-01T12:33:37.865Z,11.25
2017-11-01T12:36:13.139Z,11.26
2017-11-01T12:38:47.374Z,10.94
2017-11-01T12:41:21.898Z,10.89
2017-11-01T12:43:56.091Z,10.94
2017-11-01T12:46:30.589Z,10.81
2017-11-01T12:49:04.467Z,10.42
2017-11-01T12:51:38.950Z,10.72
2017-11-01T12:54:13.660Z,10.87
2017-11-01T12:56:48.383Z,10.75
2017-11-01T12:59:22.956Z,10.92
2017-11-01T13:01:57.347Z,10.76
2017-11-01T13:04:31.993Z,10.71
2017-11-01T13:07:06.387Z,10.58
2017-11-01T13:09:40.893Z,10.50
2017-11-01T13:12:15.291Z,10.46
2017-11-01T13:14:49.763Z,10.54
2017-11-01T13:17:23.999Z,10.49
2017-11-01T13:19:58.541Z,10.44
2017-11-01T13:22:32.991Z,10.53
2017-11-01T13:25:13.935Z,10.54
2017-11-01T13:27:48.482Z,10.60
2017-11-01T13:30:22.910Z,10.57
2017-11-01T13:32:57.448Z,10.60
2017-11-01T13:35:32.035Z,10.64
2017-11-01T13:38:06.658Z,10.67
2017-11-01T13:40:41.099Z,10.67
2017-11-01T13:43:15.638Z,10.70
2017-11-01T13:45:50.541Z,10.80
2017-11-01T13:48:25.070Z,10.81
2017-11-01T13:51:00.158Z,10.88
2017-11-01T13:53:34.583Z,10.82
2017-11-01T13:56:08.986Z,10.75
2017-11-01T13:58:43.498Z,10.70
2017-11-01T14:01:18.019Z,10.66
2017-11-01T14:03:52.605Z,10.64
2017-11-01T14:06:27.092Z,10.65
2017-11-01T14:09:01.771Z,10.59
2017-11-01T14:11:36.283Z,10.54
2017-11-01T14:14:10.719Z,10.70
2017-11-01T14:16:45.108Z,10.66
2017-11-01T14:19:19.545Z,10.75
2017-11-01T14:21:53.966Z,10.62
2017-11-01T14:24:28.634Z,10.54
2017-11-01T14:27:03.170Z,10.58
2017-11-01T14:29:37.791Z,10.63
2017-11-01T14:32:12.261Z,10.78
2017-11-01T14:34:46.794Z,10.72
2017-11-01T14:37:21.194Z,10.77
2017-11-01T14:39:55.645Z,10.78
2017-11-01T14:42:30.038Z,10.70
2017-11-01T14:47:46.486Z,10.74
2017-11-01T14:50:20.915Z,10.81
2017-11-01T14:52:55.493Z,10.78
2017-11-01T14:55:29.910Z,10.74
2017-11-01T14:58:04.563Z,10.90
2017-11-01T15:00:38.462Z,10.97
2017-11-01T15:03:13.055Z,10.94
2017-11-01T15:05:47.444Z,10.93
2017-11-01T15:08:22.038Z,10.76
2017-11-01T15:10:56.502Z,10.76
2017-11-01T15:13:30.903Z,10.75
2017-11-01T15:16:05.329Z,10.82
2017-11-01T15:18:39.722Z,10.86
2017-11-01T15:21:14.154Z,10.77
2017-11-01T15:23:48.854Z,10.76
2017-11-01T15:26:23.433Z,10.77
2017-11-01T15:28:57.930Z,10.83
2017-11-01T15:31:32.479Z,10.71
2017-11-01T15:34:07.014Z,10.83
2017-11-01T15:36:41.523Z,10.81
2017-11-01T15:39:16.174Z,10.96
2017-11-01T15:41:50.084Z,10.84
2017-11-01T15:44:24.962Z,10.85
2017-11-01T15:46:59.426Z,10.57
2017-11-01T15:49:33.922Z,10.85
2017-11-01T15:52:08.445Z,10.85
2017-11-01T15:54:43.066Z,10.74
2017-11-01T15:57:17.546Z,10.94
2017-11-01T15:59:52.047Z,10.81
2017-11-01T16:02:26.535Z,10.74
2017-11-01T16:05:01.042Z,10.71
2017-11-01T16:07:35.431Z,10.80
2017-11-01T16:10:09.890Z,10.80
2017-11-01T16:12:44.478Z,10.79
2017-11-01T16:15:18.949Z,10.79
2017-11-01T16:17:54.316Z,10.77
2017-11-01T16:20:28.772Z,10.74
2017-11-01T16:23:03.155Z,10.74
2017-11-01T16:25:37.671Z,10.72
2017-11-01T16:28:12.151Z,10.79
2017-11-01T16:30:46.551Z,10.77
2017-11-01T16:33:21.053Z,10.85
2017-11-01T16:35:55.531Z,10.86
2017-11-01T16:38:29.983Z,10.76
2017-11-01T16:41:04.412Z,10.90
2017-11-01T16:43:38.863Z,10.92
2017-11-01T16:46:13.384Z,10.60
2017-11-01T16:48:48.051Z,11.01
2017-11-01T16:51:22.519Z,11.07
2017-11-01T16:53:56.951Z,11.05
2017-11-01T16:56:31.375Z,11.09
2017-11-01T16:59:05.985Z,11.15
2017-11-01T17:01:40.372Z,11.12
2017-11-01T17:04:15.110Z,11.17
2017-11-01T17:06:49.538Z,11.10
2017-11-01T17:09:24.108Z,10.97
2017-11-01T17:11:58.571Z,10.95
2017-11-01T17:14:33.145Z,10.96
2017-11-01T17:17:07.640Z,10.89
2017-11-01T17:19:42.323Z,10.94
2017-11-01T17:22:16.775Z,10.89
2017-11-01T17:24:51.203Z,10.87
2017-11-01T17:27:25.671Z,10.83
2017-11-01T17:30:01.052Z,10.84
2017-11-01T17:32:36.379Z,10.85
2017-11-01T17:35:10.911Z,10.88
2017-11-01T17:37:44.933Z,10.88
2017-11-01T17:40:19.702Z,10.84
2017-11-01T17:42:54.135Z,10.87
2017-11-01T17:45:28.692Z,10.86
2017-11-01T17:48:03.138Z,10.88
2017-11-01T17:50:37.562Z,10.93
2017-11-01T17:53:12.097Z,10.94
2017-11-01T17:55:46.615Z,11.00
2017-11-01T17:58:21.662Z,10.93
2017-11-01T18:00:55.745Z,11.02
2017-11-01T18:03:30.399Z,11.04
2017-11-01T18:06:04.814Z,11.08
2017-11-01T18:08:39.222Z,11.09
2017-11-01T18:11:13.700Z,11.08
2017-11-01T18:13:48.226Z,11.08
2017-11-01T18:16:22.722Z,11.13
2017-11-01T18:18:57.615Z,11.12
2017-11-01T18:21:32.008Z,11.13
2017-11-01T18:24:06.414Z,11.05
2017-11-01T18:26:40.886Z,11.13
2017-11-01T18:29:15.507Z,11.09
2017-11-01T18:31:50.191Z,11.05
2017-11-01T18:34:24.716Z,11.01
2017-11-01T18:36:59.215Z,11.01
2017-11-01T18:39:33.595Z,11.04
2017-11-01T18:42:08.094Z,10.97
2017-11-01T18:44:42.694Z,10.96
2017-11-01T18:47:17.345Z,10.97
2017-11-01T18:49:51.724Z,10.99
2017-11-01T18:52:26.162Z,10.97
2017-11-01T18:55:00.739Z,10.92
2017-11-01T18:57:35.242Z,10.96
2017-11-01T19:00:09.789Z,10.95
2017-11-01T19:02:44.129Z,10.90
2017-11-01T19:05:18.532Z,10.87
2017-11-01T19:07:52.987Z,10.91
2017-11-01T19:10:27.375Z,10.93
2017-11-01T19:13:01.786Z,10.99
2017-11-01T19:15:35.622Z,11.07
2017-11-01T19:18:10.156Z,11.12
2017-11-01T19:20:44.542Z,11.18
2017-11-01T19:23:19.155Z,11.30
2017-11-01T19:25:53.623Z,11.32
2017-11-01T19:28:28.242Z,11.36
2017-11-01T19:31:02.669Z,11.37
2017-11-01T19:33:37.216Z,11.34
2017-11-01T19:36:11.612Z,11.45
2017-11-01T19:38:46.795Z,11.47
2017-11-01T19:41:21.398Z,11.42
2017-11-01T19:43:55.794Z,11.44
2017-11-01T19:46:29.927Z,11.54
2017-11-01T19:49:04.236Z,11.54
2017-11-01T19:51:38.839Z,11.59
2017-11-01T19:54:13.438Z,11.58
2017-11-01T19:56:48.049Z,11.58
2017-11-01T19:59:22.498Z,11.57
2017-11-01T20:01:56.925Z,11.50
2017-11-01T20:04:31.551Z,11.49
2017-11-01T20:07:06.000Z,11.62
2017-11-01T20:09:40.602Z,11.59
2017-11-01T20:12:15.033Z,11.56
2017-11-01T20:14:49.575Z,11.66
2017-11-01T20:17:24.038Z,11.56
2017-11-01T20:19:58.487Z,11.29
2017-11-01T20:22:32.921Z,11.32
2017-11-01T20:25:08.747Z,11.27
2017-11-01T20:27:43.370Z,11.24
2017-11-01T20:30:17.820Z,11.16
2017-11-01T20:32:52.279Z,11.16
2017-11-01T20:35:27.179Z,11.11
2017-11-01T20:38:01.879Z,11.13
2017-11-01T20:40:36.367Z,11.16
2017-11-01T20:43:10.968Z,11.12
2017-11-01T20:45:45.501Z,11.18
2017-11-01T20:48:20.016Z,11.26
2017-11-01T20:50:54.440Z,11.50
2017-11-01T20:53:29.120Z,11.29
2017-11-01T20:56:03.708Z,11.28
2017-11-01T20:58:38.198Z,11.26
2017-11-01T21:01:12.587Z,11.04
2017-11-01T21:03:47.100Z,10.92
2017-11-01T21:06:21.447Z,10.91
2017-11-01T21:08:55.262Z,11.15
2017-11-01T21:11:29.790Z,11.31
2017-11-01T21:14:05.938Z,11.60
2017-11-01T21:16:41.075Z,11.68
2017-11-01T21:19:15.591Z,11.62
2017-11-01T21:21:49.986Z,11.47
2017-11-01T21:24:24.487Z,11.26
2017-11-01T21:26:58.958Z,10.98
2017-11-01T21:29:33.495Z,10.80
2017-11-01T21:32:07.915Z,10.67
2017-11-01T21:34:42.423Z,10.60
2017-11-01T21:37:16.822Z,10.57
2017-11-01T21:39:51.400Z,10.48
2017-11-01T21:42:25.786Z,10.61
2017-11-01T21:45:00.444Z,10.64
2017-11-01T21:47:34.974Z,10.44
2017-11-01T21:50:09.423Z,10.62
2017-11-01T21:52:43.810Z,10.67
2017-11-01T21:55:18.279Z,10.72
2017-11-01T21:57:52.823Z,10.77
2017-11-01T22:00:27.237Z,10.80
2017-11-01T22:03:01.844Z,10.75
2017-11-01T22:05:36.246Z,10.74
2017-11-01T22:08:10.930Z,10.72
2017-11-01T22:10:45.362Z,10.77
2017-11-01T22:13:19.910Z,10.69
2017-11-01T22:15:54.299Z,10.37
2017-11-01T22:18:28.913Z,10.17
2017-11-01T22:21:03.459Z,10.04
2017-11-01T22:23:38.087Z,10.02
2017-11-01T22:26:12.499Z,10.37
2017-11-01T22:28:47.049Z,10.06
2017-11-01T22:31:21.540Z,9.91
2017-11-01T22:33:55.975Z,9.69
2017-11-01T22:36:30.232Z,9.59
2017-11-01T22:39:04.118Z,9.50
2017-11-01T22:41:38.636Z,9.48
2017-11-01T22:44:13.124Z,9.72
2017-11-01T22:46:47.745Z,9.54
2017-11-01T22:49:22.367Z,9.90
2017-11-01T22:51:56.783Z,9.91
2017-11-01T22:54:31.151Z,9.82
2017-11-01T22:57:05.643Z,9.68
2017-11-01T22:59:40.164Z,9.80
2017-11-01T23:02:14.606Z,9.71
2017-11-01T23:04:49.030Z,9.54
2017-11-01T23:07:23.610Z,9.41
2017-11-01T23:09:58.310Z,9.25
2017-11-01T23:12:32.776Z,9.23
2017-11-01T23:15:08.311Z,9.29
2017-11-01T23:17:42.730Z,9.44
2017-11-01T23:20:17.210Z,9.65
2017-11-01T23:22:51.625Z,9.56
2017-11-01T23:25:26.120Z,9.54
2017-11-01T23:28:00.671Z,9.75
2017-11-01T23:30:35.172Z,9.60
2017-11-01T23:33:09.609Z,9.46
2017-11-01T23:35:44.355Z,9.49
2017-11-01T23:38:18.873Z,9.61
2017-11-01T23:40:53.254Z,9.73
2017-11-01T23:43:27.795Z,9.55
2017-11-01T23:46:02.691Z,9.61
2017-11-01T23:48:37.294Z,9.79
2017-11-01T23:51:11.678Z,9.60
2017-11-01T23:53:46.266Z,9.41
2017-11-01T23:56:20.683Z,9.34
2017-11-01T23:58:55.289Z,9.24
